sensor_id;sensor_type;location;lat;lon;timestamp;temperature;humidity
52203;DHT22;38173;52.850;6.970;2022-12-18T00:00:46;-4.00;99.90
52203;DHT22;38173;52.850;6.970;2022-12-18T00:03:15;-4.00;99.90
52203;DHT22;38173;52.850;6.970;2022-12-18T00:08:34;-4.00;99.90
52203;DHT22;38173;52.850;6.970;2022-12-18T00:11:18;-4.00;99.90
52203;DHT22;38173;52.850;6.970;2022-12-18T00:13:51;-4.00;99.90
52203;DHT22;38173;52.850;6.970;2022-12-18T00:16:20;-4.10;99.90
52203;DHT22;38173;52.850;6.970;2022-12-18T00:18:46;-4.10;99.90
52203;DHT22;38173;52.850;6.970;2022-12-18T00:21:13;-4.20;99.90
52203;DHT22;38173;52.850;6.970;2022-12-18T00:23:40;-4.20;99.90
52203;DHT22;38173;52.850;6.970;2022-12-18T00:26:07;-4.30;99.90
52203;DHT22;38173;52.850;6.970;2022-12-18T00:28:44;-4.30;99.90
52203;DHT22;38173;52.850;6.970;2022-12-18T00:31:16;-4.40;99.90
52203;DHT22;38173;52.850;6.970;2022-12-18T00:33:42;-4.50;99.90
52203;DHT22;38173;52.850;6.970;2022-12-18T00:36:16;-4.50;99.90
52203;DHT22;38173;52.850;6.970;2022-12-18T00:38:53;-4.60;99.90
52203;DHT22;38173;52.850;6.970;2022-12-18T00:41:30;-4.60;99.90
52203;DHT22;38173;52.850;6.970;2022-12-18T00:44:16;-4.70;99.90
52203;DHT22;38173;52.850;6.970;2022-12-18T00:46:42;-4.70;99.90
52203;DHT22;38173;52.850;6.970;2022-12-18T00:49:16;-4.80;99.90
52203;DHT22;38173;52.850;6.970;2022-12-18T00:51:45;-4.80;99.90
52203;DHT22;38173;52.850;6.970;2022-12-18T00:54:13;-4.90;99.90
52203;DHT22;38173;52.850;6.970;2022-12-18T00:56:49;-4.90;99.90
52203;DHT22;38173;52.850;6.970;2022-12-18T00:59:16;-4.90;99.90
52203;DHT22;38173;52.850;6.970;2022-12-18T01:01:44;-4.90;99.90
52203;DHT22;38173;52.850;6.970;2022-12-18T01:04:10;-5.00;99.90
52203;DHT22;38173;52.850;6.970;2022-12-18T01:06:39;-4.90;99.90
52203;DHT22;38173;52.850;6.970;2022-12-18T01:09:26;-5.00;99.90
52203;DHT22;38173;52.850;6.970;2022-12-18T01:12:02;-5.00;99.90
52203;DHT22;38173;52.850;6.970;2022-12-18T01:14:28;-5.00;99.90
52203;DHT22;38173;52.850;6.970;2022-12-18T01:16:54;-4.90;99.90
52203;DHT22;38173;52.850;6.970;2022-12-18T01:19:24;-5.00;99.90
52203;DHT22;38173;52.850;6.970;2022-12-18T01:21:53;-5.00;99.90
52203;DHT22;38173;52.850;6.970;2022-12-18T01:24:24;-5.00;99.90
52203;DHT22;38173;52.850;6.970;2022-12-18T01:26:50;-5.10;99.90
52203;DHT22;38173;52.850;6.970;2022-12-18T01:29:18;-5.10;99.90
52203;DHT22;38173;52.850;6.970;2022-12-18T01:31:46;-5.10;99.90
52203;DHT22;38173;52.850;6.970;2022-12-18T01:34:14;-5.20;99.90
52203;DHT22;38173;52.850;6.970;2022-12-18T01:36:46;-5.20;99.90
52203;DHT22;38173;52.850;6.970;2022-12-18T01:39:19;-5.20;99.90
52203;DHT22;38173;52.850;6.970;2022-12-18T01:41:45;-5.20;99.90
52203;DHT22;38173;52.850;6.970;2022-12-18T01:47:20;-5.20;99.90
52203;DHT22;38173;52.850;6.970;2022-12-18T01:49:56;-5.30;99.90
52203;DHT22;38173;52.850;6.970;2022-12-18T01:52:27;-5.30;99.90
52203;DHT22;38173;52.850;6.970;2022-12-18T01:54:54;-5.40;99.90
52203;DHT22;38173;52.850;6.970;2022-12-18T01:57:21;-5.40;99.90
52203;DHT22;38173;52.850;6.970;2022-12-18T01:59:48;-5.50;99.90
52203;DHT22;38173;52.850;6.970;2022-12-18T02:02:20;-5.60;99.90
52203;DHT22;38173;52.850;6.970;2022-12-18T02:04:49;-5.60;99.90
52203;DHT22;38173;52.850;6.970;2022-12-18T02:07:43;-5.70;99.90
52203;DHT22;38173;52.850;6.970;2022-12-18T02:12:49;-5.80;99.90
52203;DHT22;38173;52.850;6.970;2022-12-18T02:15:26;-5.80;99.90
52203;DHT22;38173;52.850;6.970;2022-12-18T02:28:26;-6.10;99.90
52203;DHT22;38173;52.850;6.970;2022-12-18T02:31:02;-6.20;99.90
52203;DHT22;38173;52.850;6.970;2022-12-18T02:33:32;-6.20;99.90
52203;DHT22;38173;52.850;6.970;2022-12-18T02:36:02;-6.30;99.90
52203;DHT22;38173;52.850;6.970;2022-12-18T02:38:30;-6.30;99.90
52203;DHT22;38173;52.850;6.970;2022-12-18T02:40:56;-6.30;99.90
52203;DHT22;38173;52.850;6.970;2022-12-18T02:43:25;-6.30;99.90
52203;DHT22;38173;52.850;6.970;2022-12-18T02:46:00;-6.30;99.90
52203;DHT22;38173;52.850;6.970;2022-12-18T02:48:33;-6.30;99.90
52203;DHT22;38173;52.850;6.970;2022-12-18T02:51:11;-6.30;99.90
52203;DHT22;38173;52.850;6.970;2022-12-18T02:53:42;-6.30;99.90
52203;DHT22;38173;52.850;6.970;2022-12-18T02:56:20;-6.30;99.90
52203;DHT22;38173;52.850;6.970;2022-12-18T02:59:02;-6.30;99.90
52203;DHT22;38173;52.850;6.970;2022-12-18T03:04:09;-6.40;99.90
52203;DHT22;38173;52.850;6.970;2022-12-18T03:06:43;-6.40;99.90
52203;DHT22;38173;52.850;6.970;2022-12-18T03:09:24;-6.40;99.90
52203;DHT22;38173;52.850;6.970;2022-12-18T03:11:54;-6.50;99.90
52203;DHT22;38173;52.850;6.970;2022-12-18T03:14:46;-6.50;99.90
52203;DHT22;38173;52.850;6.970;2022-12-18T03:17:17;-6.50;99.90
52203;DHT22;38173;52.850;6.970;2022-12-18T03:19:52;-6.50;99.90
52203;DHT22;38173;52.850;6.970;2022-12-18T03:22:32;-6.50;99.90
52203;DHT22;38173;52.850;6.970;2022-12-18T03:25:06;-6.50;99.90
52203;DHT22;38173;52.850;6.970;2022-12-18T03:27:56;-6.60;99.90
52203;DHT22;38173;52.850;6.970;2022-12-18T03:30:24;-6.50;99.90
52203;DHT22;38173;52.850;6.970;2022-12-18T03:33:15;-6.50;99.90
52203;DHT22;38173;52.850;6.970;2022-12-18T03:35:51;-6.50;99.90
52203;DHT22;38173;52.850;6.970;2022-12-18T03:38:19;-6.60;99.90
52203;DHT22;38173;52.850;6.970;2022-12-18T03:46:05;-6.60;99.90
52203;DHT22;38173;52.850;6.970;2022-12-18T03:48:39;-6.60;99.90
52203;DHT22;38173;52.850;6.970;2022-12-18T03:54:15;-6.60;99.90
52203;DHT22;38173;52.850;6.970;2022-12-18T03:56:51;-6.60;99.90
52203;DHT22;38173;52.850;6.970;2022-12-18T03:59:39;-6.70;99.90
52203;DHT22;38173;52.850;6.970;2022-12-18T04:02:08;-6.60;99.90
52203;DHT22;38173;52.850;6.970;2022-12-18T04:04:37;-6.70;99.90
52203;DHT22;38173;52.850;6.970;2022-12-18T04:07:27;-6.70;99.90
52203;DHT22;38173;52.850;6.970;2022-12-18T04:09:59;-6.70;99.90
52203;DHT22;38173;52.850;6.970;2022-12-18T04:12:28;-6.80;99.90
52203;DHT22;38173;52.850;6.970;2022-12-18T04:14:57;-6.80;99.90
52203;DHT22;38173;52.850;6.970;2022-12-18T04:17:28;-6.80;99.90
52203;DHT22;38173;52.850;6.970;2022-12-18T04:19:54;-6.80;99.90
52203;DHT22;38173;52.850;6.970;2022-12-18T04:22:20;-6.80;99.90
52203;DHT22;38173;52.850;6.970;2022-12-18T04:24:49;-6.80;99.90
52203;DHT22;38173;52.850;6.970;2022-12-18T04:27:14;-6.80;99.90
52203;DHT22;38173;52.850;6.970;2022-12-18T04:29:41;-6.80;99.90
52203;DHT22;38173;52.850;6.970;2022-12-18T04:32:07;-6.90;99.90
52203;DHT22;38173;52.850;6.970;2022-12-18T04:34:33;-6.90;99.90
52203;DHT22;38173;52.850;6.970;2022-12-18T04:39:55;-6.90;99.90
52203;DHT22;38173;52.850;6.970;2022-12-18T04:42:23;-7.00;99.90
52203;DHT22;38173;52.850;6.970;2022-12-18T04:44:55;-6.90;99.90
52203;DHT22;38173;52.850;6.970;2022-12-18T04:47:21;-7.00;99.90
52203;DHT22;38173;52.850;6.970;2022-12-18T04:49:47;-6.90;99.90
52203;DHT22;38173;52.850;6.970;2022-12-18T04:52:21;-7.00;99.90
52203;DHT22;38173;52.850;6.970;2022-12-18T04:54:57;-7.00;99.90
52203;DHT22;38173;52.850;6.970;2022-12-18T04:57:25;-7.10;99.90
52203;DHT22;38173;52.850;6.970;2022-12-18T05:00:16;-7.00;99.90
52203;DHT22;38173;52.850;6.970;2022-12-18T05:02:48;-7.10;99.90
52203;DHT22;38173;52.850;6.970;2022-12-18T05:05:21;-7.10;99.90
52203;DHT22;38173;52.850;6.970;2022-12-18T05:07:47;-7.10;99.90
52203;DHT22;38173;52.850;6.970;2022-12-18T05:10:15;-7.20;99.90
52203;DHT22;38173;52.850;6.970;2022-12-18T05:12:48;-7.20;99.90
52203;DHT22;38173;52.850;6.970;2022-12-18T05:15:23;-7.20;99.90
52203;DHT22;38173;52.850;6.970;2022-12-18T05:17:52;-7.20;99.90
52203;DHT22;38173;52.850;6.970;2022-12-18T05:20:18;-7.30;99.90
52203;DHT22;38173;52.850;6.970;2022-12-18T05:22:43;-7.20;99.90
52203;DHT22;38173;52.850;6.970;2022-12-18T05:25:11;-7.30;99.90
52203;DHT22;38173;52.850;6.970;2022-12-18T05:27:45;-7.30;99.90
52203;DHT22;38173;52.850;6.970;2022-12-18T05:30:13;-7.30;99.90
52203;DHT22;38173;52.850;6.970;2022-12-18T05:32:59;-7.30;99.90
52203;DHT22;38173;52.850;6.970;2022-12-18T05:35:27;-7.30;99.90
52203;DHT22;38173;52.850;6.970;2022-12-18T05:38:10;-7.30;99.90
52203;DHT22;38173;52.850;6.970;2022-12-18T05:40:35;-7.30;99.90
52203;DHT22;38173;52.850;6.970;2022-12-18T05:43:19;-7.40;99.90
52203;DHT22;38173;52.850;6.970;2022-12-18T05:45:44;-7.40;99.90
52203;DHT22;38173;52.850;6.970;2022-12-18T05:48:13;-7.40;99.90
52203;DHT22;38173;52.850;6.970;2022-12-18T05:50:42;-7.40;99.90
52203;DHT22;38173;52.850;6.970;2022-12-18T05:53:11;-7.50;99.90
52203;DHT22;38173;52.850;6.970;2022-12-18T05:55:37;-7.50;99.90
52203;DHT22;38173;52.850;6.970;2022-12-18T05:58:06;-7.50;99.90
52203;DHT22;38173;52.850;6.970;2022-12-18T06:00:35;-7.50;99.90
52203;DHT22;38173;52.850;6.970;2022-12-18T06:05:44;-7.50;99.90
52203;DHT22;38173;52.850;6.970;2022-12-18T06:08:10;-7.50;99.90
52203;DHT22;38173;52.850;6.970;2022-12-18T06:10:45;-7.60;99.90
52203;DHT22;38173;52.850;6.970;2022-12-18T06:13:16;-7.60;99.90
52203;DHT22;38173;52.850;6.970;2022-12-18T06:15:57;-7.60;99.90
52203;DHT22;38173;52.850;6.970;2022-12-18T06:18:25;-7.60;99.90
52203;DHT22;38173;52.850;6.970;2022-12-18T06:20:57;-7.60;99.90
52203;DHT22;38173;52.850;6.970;2022-12-18T06:23:29;-7.60;99.90
52203;DHT22;38173;52.850;6.970;2022-12-18T06:25:58;-7.70;99.90
52203;DHT22;38173;52.850;6.970;2022-12-18T06:28:27;-7.70;99.90
52203;DHT22;38173;52.850;6.970;2022-12-18T06:30:53;-7.70;99.90
52203;DHT22;38173;52.850;6.970;2022-12-18T06:33:19;-7.70;99.90
52203;DHT22;38173;52.850;6.970;2022-12-18T06:36:06;-7.70;99.90
52203;DHT22;38173;52.850;6.970;2022-12-18T06:38:36;-7.70;99.90
52203;DHT22;38173;52.850;6.970;2022-12-18T06:43:47;-7.70;99.90
52203;DHT22;38173;52.850;6.970;2022-12-18T06:46:15;-7.70;99.90
52203;DHT22;38173;52.850;6.970;2022-12-18T06:48:51;-7.70;99.90
52203;DHT22;38173;52.850;6.970;2022-12-18T06:51:37;-7.70;99.90
52203;DHT22;38173;52.850;6.970;2022-12-18T06:54:27;-7.70;99.90
52203;DHT22;38173;52.850;6.970;2022-12-18T06:56:54;-7.70;99.90
52203;DHT22;38173;52.850;6.970;2022-12-18T06:59:35;-7.70;99.90
52203;DHT22;38173;52.850;6.970;2022-12-18T07:02:03;-7.70;99.90
52203;DHT22;38173;52.850;6.970;2022-12-18T07:04:42;-7.70;99.90
52203;DHT22;38173;52.850;6.970;2022-12-18T07:07:08;-7.70;99.90
52203;DHT22;38173;52.850;6.970;2022-12-18T07:12:28;-7.80;99.90
52203;DHT22;38173;52.850;6.970;2022-12-18T07:15:02;-7.80;99.90
52203;DHT22;38173;52.850;6.970;2022-12-18T07:17:31;-7.80;99.90
52203;DHT22;38173;52.850;6.970;2022-12-18T07:19:57;-7.80;99.90
52203;DHT22;38173;52.850;6.970;2022-12-18T07:22:24;-7.80;99.90
52203;DHT22;38173;52.850;6.970;2022-12-18T07:24:51;-7.80;99.90
52203;DHT22;38173;52.850;6.970;2022-12-18T07:27:19;-7.80;99.90
52203;DHT22;38173;52.850;6.970;2022-12-18T07:29:51;-7.80;99.90
52203;DHT22;38173;52.850;6.970;2022-12-18T07:32:17;-7.80;99.90
52203;DHT22;38173;52.850;6.970;2022-12-18T07:34:42;-7.80;99.90
52203;DHT22;38173;52.850;6.970;2022-12-18T07:37:08;-7.70;99.90
52203;DHT22;38173;52.850;6.970;2022-12-18T07:39:36;-7.70;99.90
52203;DHT22;38173;52.850;6.970;2022-12-18T07:42:03;-7.70;99.90
52203;DHT22;38173;52.850;6.970;2022-12-18T07:44:50;-7.70;99.90
52203;DHT22;38173;52.850;6.970;2022-12-18T07:47:16;-7.60;99.90
52203;DHT22;38173;52.850;6.970;2022-12-18T07:49:41;-7.60;99.90
52203;DHT22;38173;52.850;6.970;2022-12-18T07:52:09;-7.50;99.90
52203;DHT22;38173;52.850;6.970;2022-12-18T07:54:35;-7.50;99.90
52203;DHT22;38173;52.850;6.970;2022-12-18T07:57:01;-7.40;99.90
52203;DHT22;38173;52.850;6.970;2022-12-18T07:59:27;-7.30;99.90
52203;DHT22;38173;52.850;6.970;2022-12-18T08:01:53;-7.30;99.90
52203;DHT22;38173;52.850;6.970;2022-12-18T08:04:24;-7.20;99.90
52203;DHT22;38173;52.850;6.970;2022-12-18T08:06:50;-7.10;99.90
52203;DHT22;38173;52.850;6.970;2022-12-18T08:09:18;-7.10;99.90
52203;DHT22;38173;52.850;6.970;2022-12-18T08:11:44;-7.00;99.90
52203;DHT22;38173;52.850;6.970;2022-12-18T08:14:10;-7.00;99.90
52203;DHT22;38173;52.850;6.970;2022-12-18T08:16:35;-6.90;99.90
52203;DHT22;38173;52.850;6.970;2022-12-18T08:19:04;-6.80;99.90
52203;DHT22;38173;52.850;6.970;2022-12-18T08:21:33;-6.80;99.90
52203;DHT22;38173;52.850;6.970;2022-12-18T08:24:00;-6.70;99.90
52203;DHT22;38173;52.850;6.970;2022-12-18T08:26:26;-6.60;99.90
52203;DHT22;38173;52.850;6.970;2022-12-18T08:28:53;-6.60;99.90
52203;DHT22;38173;52.850;6.970;2022-12-18T08:31:19;-6.60;99.90
52203;DHT22;38173;52.850;6.970;2022-12-18T08:33:45;-6.50;99.90
52203;DHT22;38173;52.850;6.970;2022-12-18T08:36:11;-6.50;99.90
52203;DHT22;38173;52.850;6.970;2022-12-18T08:38:36;-6.50;99.90
52203;DHT22;38173;52.850;6.970;2022-12-18T08:41:05;-6.50;99.90
52203;DHT22;38173;52.850;6.970;2022-12-18T08:43:31;-6.40;99.90
52203;DHT22;38173;52.850;6.970;2022-12-18T08:46:17;-6.40;99.90
52203;DHT22;38173;52.850;6.970;2022-12-18T08:48:45;-6.30;99.90
52203;DHT22;38173;52.850;6.970;2022-12-18T08:51:11;-6.30;99.90
52203;DHT22;38173;52.850;6.970;2022-12-18T08:53:40;-6.20;99.90
52203;DHT22;38173;52.850;6.970;2022-12-18T08:56:05;-6.20;99.90
52203;DHT22;38173;52.850;6.970;2022-12-18T08:58:31;-6.10;99.90
52203;DHT22;38173;52.850;6.970;2022-12-18T09:01:05;-6.10;99.90
52203;DHT22;38173;52.850;6.970;2022-12-18T09:03:31;-6.00;99.90
52203;DHT22;38173;52.850;6.970;2022-12-18T09:06:00;-6.00;99.90
52203;DHT22;38173;52.850;6.970;2022-12-18T09:08:26;-5.90;99.90
52203;DHT22;38173;52.850;6.970;2022-12-18T09:10:52;-5.90;99.90
52203;DHT22;38173;52.850;6.970;2022-12-18T09:13:18;-5.80;99.90
52203;DHT22;38173;52.850;6.970;2022-12-18T09:15:45;-5.80;99.90
52203;DHT22;38173;52.850;6.970;2022-12-18T09:18:11;-5.80;99.90
52203;DHT22;38173;52.850;6.970;2022-12-18T09:20:37;-5.70;99.90
52203;DHT22;38173;52.850;6.970;2022-12-18T09:23:03;-5.60;99.90
52203;DHT22;38173;52.850;6.970;2022-12-18T09:25:29;-5.50;99.90
52203;DHT22;38173;52.850;6.970;2022-12-18T09:28:05;-5.40;99.90
52203;DHT22;38173;52.850;6.970;2022-12-18T09:30:34;-5.40;99.90
52203;DHT22;38173;52.850;6.970;2022-12-18T09:33:02;-5.30;99.90
52203;DHT22;38173;52.850;6.970;2022-12-18T09:35:27;-5.20;99.90
52203;DHT22;38173;52.850;6.970;2022-12-18T09:37:53;-5.20;99.90
52203;DHT22;38173;52.850;6.970;2022-12-18T09:40:20;-5.10;99.90
52203;DHT22;38173;52.850;6.970;2022-12-18T09:42:48;-5.00;99.90
52203;DHT22;38173;52.850;6.970;2022-12-18T09:45:16;-4.80;99.90
52203;DHT22;38173;52.850;6.970;2022-12-18T09:47:42;-4.60;99.90
52203;DHT22;38173;52.850;6.970;2022-12-18T09:50:19;-4.40;99.90
52203;DHT22;38173;52.850;6.970;2022-12-18T09:52:49;-4.20;99.90
52203;DHT22;38173;52.850;6.970;2022-12-18T09:55:28;-4.20;99.90
52203;DHT22;38173;52.850;6.970;2022-12-18T09:58:02;-4.20;99.90
52203;DHT22;38173;52.850;6.970;2022-12-18T10:00:28;-4.20;99.90
52203;DHT22;38173;52.850;6.970;2022-12-18T10:02:57;-4.10;99.90
52203;DHT22;38173;52.850;6.970;2022-12-18T10:05:34;-4.00;99.90
52203;DHT22;38173;52.850;6.970;2022-12-18T10:13:01;-3.80;99.90
52203;DHT22;38173;52.850;6.970;2022-12-18T10:15:30;-3.80;99.90
52203;DHT22;38173;52.850;6.970;2022-12-18T10:22:59;-3.40;99.90
52203;DHT22;38173;52.850;6.970;2022-12-18T10:28:10;-3.40;99.90
52203;DHT22;38173;52.850;6.970;2022-12-18T10:30:40;-3.40;99.90
52203;DHT22;38173;52.850;6.970;2022-12-18T10:33:10;-3.50;99.90
52203;DHT22;38173;52.850;6.970;2022-12-18T10:35:36;-3.60;99.90
52203;DHT22;38173;52.850;6.970;2022-12-18T10:38:19;-3.60;99.90
52203;DHT22;38173;52.850;6.970;2022-12-18T10:40:49;-3.60;99.90
52203;DHT22;38173;52.850;6.970;2022-12-18T10:43:15;-3.60;99.90
52203;DHT22;38173;52.850;6.970;2022-12-18T10:45:42;-3.60;99.90
52203;DHT22;38173;52.850;6.970;2022-12-18T10:48:18;-3.50;99.90
52203;DHT22;38173;52.850;6.970;2022-12-18T10:50:46;-3.50;99.90
52203;DHT22;38173;52.850;6.970;2022-12-18T10:53:14;-3.50;99.90
52203;DHT22;38173;52.850;6.970;2022-12-18T10:55:44;-3.40;99.90
52203;DHT22;38173;52.850;6.970;2022-12-18T10:58:22;-3.40;99.90
52203;DHT22;38173;52.850;6.970;2022-12-18T11:01:04;-3.30;99.90
52203;DHT22;38173;52.850;6.970;2022-12-18T11:03:31;-3.30;99.90
52203;DHT22;38173;52.850;6.970;2022-12-18T11:08:32;-3.10;99.90
52203;DHT22;38173;52.850;6.970;2022-12-18T11:10:57;-3.10;99.90
52203;DHT22;38173;52.850;6.970;2022-12-18T11:13:24;-3.10;99.90
52203;DHT22;38173;52.850;6.970;2022-12-18T11:15:52;-3.00;99.90
52203;DHT22;38173;52.850;6.970;2022-12-18T11:18:32;-3.00;99.90
52203;DHT22;38173;52.850;6.970;2022-12-18T11:21:09;-3.00;99.90
52203;DHT22;38173;52.850;6.970;2022-12-18T11:23:35;-2.90;99.90
52203;DHT22;38173;52.850;6.970;2022-12-18T11:26:03;-2.90;99.90
52203;DHT22;38173;52.850;6.970;2022-12-18T11:28:39;-2.80;99.90
52203;DHT22;38173;52.850;6.970;2022-12-18T11:33:45;-2.70;99.90
52203;DHT22;38173;52.850;6.970;2022-12-18T11:36:12;-2.60;99.90
52203;DHT22;38173;52.850;6.970;2022-12-18T11:38:42;-2.60;99.90
52203;DHT22;38173;52.850;6.970;2022-12-18T11:41:29;-2.60;99.90
52203;DHT22;38173;52.850;6.970;2022-12-18T11:44:19;-2.50;99.90
52203;DHT22;38173;52.850;6.970;2022-12-18T11:49:36;-2.40;99.90
52203;DHT22;38173;52.850;6.970;2022-12-18T11:52:15;-2.40;99.90
52203;DHT22;38173;52.850;6.970;2022-12-18T11:54:42;-2.40;99.90
52203;DHT22;38173;52.850;6.970;2022-12-18T11:57:51;-2.30;99.90
52203;DHT22;38173;52.850;6.970;2022-12-18T12:00:04;-2.30;99.90
52203;DHT22;38173;52.850;6.970;2022-12-18T12:05:10;-2.30;99.90
52203;DHT22;38173;52.850;6.970;2022-12-18T12:12:53;-2.20;99.90
52203;DHT22;38173;52.850;6.970;2022-12-18T12:15:31;-2.20;99.90
52203;DHT22;38173;52.850;6.970;2022-12-18T12:18:22;-2.20;99.90
52203;DHT22;38173;52.850;6.970;2022-12-18T12:23:46;-2.10;99.90
52203;DHT22;38173;52.850;6.970;2022-12-18T12:26:21;-2.10;99.90
52203;DHT22;38173;52.850;6.970;2022-12-18T12:31:25;-2.10;99.90
52203;DHT22;38173;52.850;6.970;2022-12-18T12:36:44;-2.10;99.90
52203;DHT22;38173;52.850;6.970;2022-12-18T12:39:10;-2.10;99.90
52203;DHT22;38173;52.850;6.970;2022-12-18T12:41:38;-2.00;99.90
52203;DHT22;38173;52.850;6.970;2022-12-18T12:44:27;-2.00;99.90
52203;DHT22;38173;52.850;6.970;2022-12-18T12:46:56;-2.00;99.90
52203;DHT22;38173;52.850;6.970;2022-12-18T12:49:25;-2.00;99.90
52203;DHT22;38173;52.850;6.970;2022-12-18T12:52:04;-2.00;99.90
52203;DHT22;38173;52.850;6.970;2022-12-18T12:54:31;-2.00;99.90
52203;DHT22;38173;52.850;6.970;2022-12-18T12:57:00;-2.00;99.90
52203;DHT22;38173;52.850;6.970;2022-12-18T12:59:32;-1.90;99.90
52203;DHT22;38173;52.850;6.970;2022-12-18T13:04:47;-1.90;99.90
52203;DHT22;38173;52.850;6.970;2022-12-18T13:07:20;-1.90;99.90
52203;DHT22;38173;52.850;6.970;2022-12-18T13:12:33;-1.90;99.90
52203;DHT22;38173;52.850;6.970;2022-12-18T13:15:21;-1.80;99.90
52203;DHT22;38173;52.850;6.970;2022-12-18T13:17:47;-1.90;99.90
52203;DHT22;38173;52.850;6.970;2022-12-18T13:20:13;-1.80;99.90
52203;DHT22;38173;52.850;6.970;2022-12-18T13:28:08;-1.80;99.90
52203;DHT22;38173;52.850;6.970;2022-12-18T13:35:39;-1.80;99.90
52203;DHT22;38173;52.850;6.970;2022-12-18T13:45:44;-1.90;99.90
52203;DHT22;38173;52.850;6.970;2022-12-18T13:48:21;-1.90;99.90
52203;DHT22;38173;52.850;6.970;2022-12-18T13:50:57;-1.90;99.90
52203;DHT22;38173;52.850;6.970;2022-12-18T13:53:27;-1.90;99.90
52203;DHT22;38173;52.850;6.970;2022-12-18T13:55:54;-1.90;99.90
52203;DHT22;38173;52.850;6.970;2022-12-18T13:58:20;-1.90;99.90
52203;DHT22;38173;52.850;6.970;2022-12-18T14:00:45;-1.90;99.90
52203;DHT22;38173;52.850;6.970;2022-12-18T14:03:16;-1.80;99.90
52203;DHT22;38173;52.850;6.970;2022-12-18T14:05:46;-1.80;99.90
52203;DHT22;38173;52.850;6.970;2022-12-18T14:08:17;-1.80;99.90
52203;DHT22;38173;52.850;6.970;2022-12-18T14:10:45;-1.80;99.90
52203;DHT22;38173;52.850;6.970;2022-12-18T14:13:31;-1.70;99.90
52203;DHT22;38173;52.850;6.970;2022-12-18T14:15:57;-1.70;99.90
52203;DHT22;38173;52.850;6.970;2022-12-18T14:18:38;-1.80;99.90
52203;DHT22;38173;52.850;6.970;2022-12-18T14:21:14;-1.80;99.90
52203;DHT22;38173;52.850;6.970;2022-12-18T14:23:41;-1.80;99.90
52203;DHT22;38173;52.850;6.970;2022-12-18T14:26:26;-1.80;99.90
52203;DHT22;38173;52.850;6.970;2022-12-18T14:28:54;-1.90;99.90
52203;DHT22;38173;52.850;6.970;2022-12-18T14:31:24;-1.90;99.90
52203;DHT22;38173;52.850;6.970;2022-12-18T14:33:50;-1.90;99.90
52203;DHT22;38173;52.850;6.970;2022-12-18T14:36:18;-2.00;99.90
52203;DHT22;38173;52.850;6.970;2022-12-18T14:38:48;-2.00;99.90
52203;DHT22;38173;52.850;6.970;2022-12-18T14:41:14;-2.00;99.90
52203;DHT22;38173;52.850;6.970;2022-12-18T14:43:41;-2.00;99.90
52203;DHT22;38173;52.850;6.970;2022-12-18T14:48:52;-2.00;99.90
52203;DHT22;38173;52.850;6.970;2022-12-18T14:51:19;-2.00;99.90
52203;DHT22;38173;52.850;6.970;2022-12-18T14:53:46;-2.00;99.90
52203;DHT22;38173;52.850;6.970;2022-12-18T14:56:22;-2.00;99.90
52203;DHT22;38173;52.850;6.970;2022-12-18T14:58:51;-2.10;99.90
52203;DHT22;38173;52.850;6.970;2022-12-18T15:01:20;-2.00;99.90
52203;DHT22;38173;52.850;6.970;2022-12-18T15:03:46;-2.10;99.90
52203;DHT22;38173;52.850;6.970;2022-12-18T15:06:16;-2.10;99.90
52203;DHT22;38173;52.850;6.970;2022-12-18T15:08:42;-2.10;99.90
52203;DHT22;38173;52.850;6.970;2022-12-18T15:11:27;-2.10;99.90
52203;DHT22;38173;52.850;6.970;2022-12-18T15:13:53;-2.10;99.90
52203;DHT22;38173;52.850;6.970;2022-12-18T15:16:19;-2.10;99.90
52203;DHT22;38173;52.850;6.970;2022-12-18T15:18:45;-2.10;99.90
52203;DHT22;38173;52.850;6.970;2022-12-18T15:21:17;-2.10;99.90
52203;DHT22;38173;52.850;6.970;2022-12-18T15:26:10;-2.20;99.90
52203;DHT22;38173;52.850;6.970;2022-12-18T15:33:36;-2.20;99.90
52203;DHT22;38173;52.850;6.970;2022-12-18T15:36:03;-2.20;99.90
52203;DHT22;38173;52.850;6.970;2022-12-18T15:38:30;-2.20;99.90
52203;DHT22;38173;52.850;6.970;2022-12-18T15:40:55;-2.20;99.90
52203;DHT22;38173;52.850;6.970;2022-12-18T15:43:22;-2.20;99.90
52203;DHT22;38173;52.850;6.970;2022-12-18T15:46:04;-2.20;99.90
52203;DHT22;38173;52.850;6.970;2022-12-18T15:48:32;-2.20;99.90
52203;DHT22;38173;52.850;6.970;2022-12-18T15:50:57;-2.20;99.90
52203;DHT22;38173;52.850;6.970;2022-12-18T15:53:29;-2.20;99.90
52203;DHT22;38173;52.850;6.970;2022-12-18T15:55:54;-2.20;99.90
52203;DHT22;38173;52.850;6.970;2022-12-18T15:58:39;-2.10;99.90
52203;DHT22;38173;52.850;6.970;2022-12-18T16:01:05;-2.20;99.90
52203;DHT22;38173;52.850;6.970;2022-12-18T16:03:30;-2.10;99.90
52203;DHT22;38173;52.850;6.970;2022-12-18T16:05:56;-2.10;99.90
52203;DHT22;38173;52.850;6.970;2022-12-18T16:08:23;-2.10;99.90
52203;DHT22;38173;52.850;6.970;2022-12-18T16:10:49;-2.10;99.90
52203;DHT22;38173;52.850;6.970;2022-12-18T16:13:15;-2.10;99.90
52203;DHT22;38173;52.850;6.970;2022-12-18T16:15:42;-2.10;99.90
52203;DHT22;38173;52.850;6.970;2022-12-18T16:18:07;-2.10;99.90
52203;DHT22;38173;52.850;6.970;2022-12-18T16:20:33;-2.10;99.90
52203;DHT22;38173;52.850;6.970;2022-12-18T16:22:59;-2.10;99.90
52203;DHT22;38173;52.850;6.970;2022-12-18T16:25:26;-2.10;99.90
52203;DHT22;38173;52.850;6.970;2022-12-18T16:27:52;-2.10;99.90
52203;DHT22;38173;52.850;6.970;2022-12-18T16:30:21;-2.10;99.90
52203;DHT22;38173;52.850;6.970;2022-12-18T16:32:46;-2.10;99.90
52203;DHT22;38173;52.850;6.970;2022-12-18T16:35:13;-2.10;99.90
52203;DHT22;38173;52.850;6.970;2022-12-18T16:37:39;-2.10;99.90
52203;DHT22;38173;52.850;6.970;2022-12-18T16:40:06;-2.10;99.90
52203;DHT22;38173;52.850;6.970;2022-12-18T16:42:35;-2.10;99.90
52203;DHT22;38173;52.850;6.970;2022-12-18T16:45:01;-2.10;99.90
52203;DHT22;38173;52.850;6.970;2022-12-18T16:47:26;-2.10;99.90
52203;DHT22;38173;52.850;6.970;2022-12-18T16:49:52;-2.10;99.90
52203;DHT22;38173;52.850;6.970;2022-12-18T16:52:18;-2.10;99.90
52203;DHT22;38173;52.850;6.970;2022-12-18T16:54:44;-2.00;99.90
52203;DHT22;38173;52.850;6.970;2022-12-18T16:57:13;-2.00;99.90
52203;DHT22;38173;52.850;6.970;2022-12-18T16:59:39;-2.00;99.90
52203;DHT22;38173;52.850;6.970;2022-12-18T17:02:05;-2.00;99.90
52203;DHT22;38173;52.850;6.970;2022-12-18T17:04:31;-2.00;99.90
52203;DHT22;38173;52.850;6.970;2022-12-18T17:06:58;-2.00;99.90
52203;DHT22;38173;52.850;6.970;2022-12-18T17:09:23;-2.00;99.90
52203;DHT22;38173;52.850;6.970;2022-12-18T17:11:50;-2.00;99.90
52203;DHT22;38173;52.850;6.970;2022-12-18T17:14:18;-2.00;99.90
52203;DHT22;38173;52.850;6.970;2022-12-18T17:16:44;-1.90;99.90
52203;DHT22;38173;52.850;6.970;2022-12-18T17:19:11;-1.90;99.90
52203;DHT22;38173;52.850;6.970;2022-12-18T17:21:37;-1.90;99.90
52203;DHT22;38173;52.850;6.970;2022-12-18T17:24:02;-1.90;99.90
52203;DHT22;38173;52.850;6.970;2022-12-18T17:26:28;-1.90;99.90
52203;DHT22;38173;52.850;6.970;2022-12-18T17:28:55;-1.80;99.90
52203;DHT22;38173;52.850;6.970;2022-12-18T17:31:22;-1.80;99.90
52203;DHT22;38173;52.850;6.970;2022-12-18T17:33:48;-1.80;99.90
52203;DHT22;38173;52.850;6.970;2022-12-18T17:36:14;-1.80;99.90
52203;DHT22;38173;52.850;6.970;2022-12-18T17:38:41;-1.80;99.90
52203;DHT22;38173;52.850;6.970;2022-12-18T17:41:07;-1.80;99.90